createdAt,value
2017-10-13T00:00:06.915Z,0
2017-10-13T00:01:06.906Z,0
2017-10-13T00:02:06.565Z,0
2017-10-13T00:03:06.883Z,0
2017-10-13T00:04:06.871Z,0
2017-10-13T00:05:06.869Z,0
2017-10-13T00:06:06.870Z,0
2017-10-13T00:07:06.852Z,0
2017-10-13T00:08:06.502Z,0
2017-10-13T00:09:06.835Z,0
2017-10-13T00:10:06.491Z,0
2017-10-13T00:11:06.810Z,0
2017-10-13T00:12:06.478Z,0
2017-10-13T00:13:06.461Z,0
2017-10-13T00:14:06.451Z,0
2017-10-13T00:15:06.775Z,0
2017-10-13T00:16:06.761Z,0
2017-10-13T00:17:06.758Z,0
2017-10-13T00:18:06.742Z,0
2017-10-13T00:19:06.737Z,0
2017-10-13T00:20:06.731Z,0
2017-10-13T00:21:06.721Z,0
2017-10-13T00:22:06.042Z,0
2017-10-13T00:23:06.705Z,0
2017-10-13T00:24:06.026Z,0
2017-10-13T00:25:05.691Z,0
2017-10-13T00:26:06.684Z,0
2017-10-13T00:27:06.329Z,0
2017-10-13T00:28:06.661Z,0
2017-10-13T00:29:06.644Z,0
2017-10-13T00:30:06.301Z,0
2017-10-13T00:31:06.642Z,0
2017-10-13T00:32:06.294Z,0
2017-10-13T00:33:06.617Z,0
2017-10-13T00:34:06.607Z,0
2017-10-13T00:35:06.592Z,0
2017-10-13T00:36:06.247Z,0
2017-10-13T00:37:06.578Z,0
2017-10-13T00:38:06.229Z,0
2017-10-13T00:39:06.550Z,0
2017-10-13T00:40:06.547Z,0
2017-10-13T00:41:06.203Z,0
2017-10-13T00:42:06.540Z,0
2017-10-13T00:43:06.186Z,0
2017-10-13T00:44:06.509Z,0
2017-10-13T00:45:06.501Z,0
2017-10-13T00:46:06.502Z,0
2017-10-13T00:47:06.493Z,0
2017-10-13T00:48:06.480Z,0
2017-10-13T00:49:06.473Z,0
2017-10-13T00:50:05.797Z,0
2017-10-13T00:51:05.787Z,0
2017-10-13T00:52:06.444Z,0
2017-10-13T00:53:06.140Z,0
2017-10-13T00:54:06.431Z,0
2017-10-13T00:55:06.420Z,0
2017-10-13T00:56:06.405Z,0
2017-10-13T00:57:06.068Z,0
2017-10-13T00:58:06.392Z,0
2017-10-13T00:59:05.720Z,0
2017-10-13T01:00:06.382Z,0
2017-10-13T01:01:06.033Z,0
2017-10-13T01:02:06.027Z,0
2017-10-13T01:03:06.350Z,0
2017-10-13T01:04:06.343Z,0
2017-10-13T01:05:06.334Z,0
2017-10-13T01:06:06.315Z,0
2017-10-13T01:07:06.313Z,0
2017-10-13T01:08:06.315Z,0
2017-10-13T01:09:06.298Z,0
2017-10-13T01:10:06.302Z,0
2017-10-13T01:11:05.960Z,0
2017-10-13T01:12:05.937Z,0
2017-10-13T01:13:05.929Z,0
2017-10-13T01:14:06.251Z,0
2017-10-13T01:15:06.252Z,0
2017-10-13T01:16:06.244Z,0
2017-10-13T01:17:06.231Z,0
2017-10-13T01:18:06.232Z,0
2017-10-13T01:19:06.236Z,0
2017-10-13T01:20:06.210Z,0
2017-10-13T01:21:05.883Z,0
2017-10-13T01:22:06.189Z,0
2017-10-13T01:23:05.849Z,0
2017-10-13T01:24:05.841Z,0
2017-10-13T01:25:06.163Z,0
2017-10-13T01:26:06.155Z,0
2017-10-13T01:27:06.148Z,0
2017-10-13T01:28:05.807Z,0
2017-10-13T01:29:06.127Z,0
2017-10-13T01:30:06.132Z,0
2017-10-13T01:31:05.446Z,0
2017-10-13T01:32:06.103Z,0
2017-10-13T01:33:06.093Z,0
2017-10-13T01:34:06.094Z,0
2017-10-13T01:35:06.091Z,0
2017-10-13T01:36:05.766Z,0
2017-10-13T01:37:05.730Z,0
2017-10-13T01:38:05.935Z,0
2017-10-13T01:39:05.713Z,0
2017-10-13T01:40:06.041Z,0
2017-10-13T01:41:06.032Z,0
2017-10-13T01:42:05.689Z,0
2017-10-13T01:43:06.020Z,0
2017-10-13T01:44:06.013Z,0
2017-10-13T01:45:05.665Z,0
2017-10-13T01:46:05.333Z,0
2017-10-13T01:47:05.658Z,0
2017-10-13T01:48:05.638Z,0
2017-10-13T01:49:05.634Z,0
2017-10-13T01:50:05.958Z,0
2017-10-13T01:51:05.956Z,0
2017-10-13T01:52:05.942Z,0
2017-10-13T01:53:05.929Z,0
2017-10-13T01:54:05.939Z,0
2017-10-13T01:55:05.916Z,0
2017-10-13T01:56:05.580Z,0
2017-10-13T01:57:06.198Z,0
2017-10-13T01:58:05.561Z,0
2017-10-13T01:59:05.550Z,0
2017-10-13T02:00:05.886Z,0
2017-10-13T02:01:05.866Z,0
2017-10-13T02:02:05.868Z,0
2017-10-13T02:03:05.852Z,0
2017-10-13T02:04:05.844Z,0
2017-10-13T02:05:05.831Z,0
2017-10-13T02:06:05.829Z,0
2017-10-13T02:07:05.817Z,0
2017-10-13T02:08:05.471Z,0
2017-10-13T02:09:05.808Z,0
2017-10-13T02:10:05.459Z,0
2017-10-13T02:11:05.482Z,0
2017-10-13T02:12:05.439Z,0
2017-10-13T02:13:05.764Z,0
2017-10-13T02:14:05.429Z,0
2017-10-13T02:15:05.420Z,0
2017-10-13T02:16:05.407Z,0
2017-10-13T02:17:05.733Z,0
2017-10-13T02:18:05.742Z,0
2017-10-13T02:19:05.393Z,0
2017-10-13T02:20:05.713Z,0
2017-10-13T02:21:05.703Z,0
2017-10-13T02:22:05.360Z,0
2017-10-13T02:23:05.985Z,0
2017-10-13T02:24:05.678Z,0
2017-10-13T02:25:05.338Z,0
2017-10-13T02:26:05.330Z,0
2017-10-13T02:27:05.323Z,0
2017-10-13T02:28:05.949Z,0
2017-10-13T02:29:05.307Z,0
2017-10-13T02:30:05.637Z,0
2017-10-13T02:31:04.959Z,0
2017-10-13T02:32:05.617Z,0
2017-10-13T02:33:05.282Z,0
2017-10-13T02:34:05.609Z,0
2017-10-13T02:35:05.589Z,0
2017-10-13T02:36:05.576Z,0
2017-10-13T02:37:05.570Z,0
2017-10-13T02:38:05.570Z,0
2017-10-13T02:39:05.555Z,0
2017-10-13T02:40:05.220Z,0
2017-10-13T02:41:05.547Z,0
2017-10-13T02:42:05.202Z,0
2017-10-13T02:43:04.861Z,0
2017-10-13T02:44:05.511Z,0
2017-10-13T02:45:05.169Z,0
2017-10-13T02:46:05.496Z,0
2017-10-13T02:47:05.159Z,0
2017-10-13T02:48:05.480Z,0
2017-10-13T02:49:05.143Z,0
2017-10-13T02:50:05.139Z,0
2017-10-13T02:51:05.124Z,0
2017-10-13T02:52:05.447Z,0
2017-10-13T02:53:05.443Z,0
2017-10-13T02:54:05.737Z,0
2017-10-13T02:55:05.439Z,0
2017-10-13T02:56:05.434Z,0
2017-10-13T02:57:05.423Z,0
2017-10-13T02:58:05.400Z,0
2017-10-13T02:59:05.310Z,0
2017-10-13T03:00:05.054Z,0
2017-10-13T03:01:05.051Z,0
2017-10-13T03:02:05.042Z,0
2017-10-13T03:03:05.358Z,0
2017-10-13T03:04:05.356Z,0
2017-10-13T03:05:05.014Z,0
2017-10-13T03:06:05.385Z,0
2017-10-13T03:07:05.325Z,0
2017-10-13T03:08:05.321Z,0
2017-10-13T03:09:04.975Z,0
2017-10-13T03:10:04.971Z,0
2017-10-13T03:11:04.965Z,0
2017-10-13T03:12:05.288Z,0
2017-10-13T03:13:05.284Z,0
2017-10-13T03:14:05.272Z,0
2017-10-13T03:15:04.930Z,0
2017-10-13T03:16:05.257Z,0
2017-10-13T03:17:04.921Z,0
2017-10-13T03:18:05.238Z,0
2017-10-13T03:19:05.235Z,0
2017-10-13T03:20:05.226Z,0
2017-10-13T03:21:04.881Z,0
2017-10-13T03:22:04.876Z,0
2017-10-13T03:23:05.199Z,0
2017-10-13T03:24:04.852Z,0
2017-10-13T03:25:05.099Z,0
2017-10-13T03:26:04.838Z,0
2017-10-13T03:27:05.169Z,0
2017-10-13T03:28:05.160Z,0
2017-10-13T03:29:05.151Z,0
2017-10-13T03:30:05.450Z,0
2017-10-13T03:31:05.147Z,0
2017-10-13T03:32:05.148Z,0
2017-10-13T03:33:04.782Z,0
2017-10-13T03:34:05.104Z,0
2017-10-13T03:35:04.769Z,0
2017-10-13T03:36:05.092Z,0
2017-10-13T03:37:05.084Z,0
2017-10-13T03:38:05.072Z,0
2017-10-13T03:39:05.060Z,0
2017-10-13T03:40:05.063Z,0
2017-10-13T03:41:05.064Z,0
2017-10-13T03:42:05.041Z,0
2017-10-13T03:43:05.039Z,0
2017-10-13T03:44:05.026Z,0
2017-10-13T03:45:04.683Z,0
2017-10-13T03:46:04.669Z,0
2017-10-13T03:47:05.014Z,0
2017-10-13T03:48:04.995Z,0
2017-10-13T03:49:04.985Z,0
2017-10-13T03:50:04.638Z,0
2017-10-13T03:51:04.630Z,0
2017-10-13T03:52:04.630Z,0
2017-10-13T03:53:04.951Z,0
2017-10-13T03:54:04.938Z,0
2017-10-13T03:55:04.933Z,0
2017-10-13T03:56:05.236Z,0
2017-10-13T03:57:04.585Z,0
2017-10-13T03:58:04.934Z,0
2017-10-13T03:59:04.896Z,0
2017-10-13T04:00:04.890Z,0
2017-10-13T04:01:04.877Z,0
2017-10-13T04:02:04.554Z,0
2017-10-13T04:03:04.535Z,0
2017-10-13T04:04:04.854Z,0
2017-10-13T04:05:04.850Z,0
2017-10-13T04:06:04.859Z,0
2017-10-13T04:07:04.492Z,0
2017-10-13T04:08:04.823Z,0
2017-10-13T04:09:04.478Z,0
2017-10-13T04:10:04.802Z,0
2017-10-13T04:11:04.459Z,0
2017-10-13T04:12:04.784Z,0
2017-10-13T04:13:04.444Z,0
2017-10-13T04:14:04.770Z,0
2017-10-13T04:15:04.091Z,0
2017-10-13T04:16:04.745Z,0
2017-10-13T04:17:04.749Z,0
2017-10-13T04:18:04.729Z,0
2017-10-13T04:19:04.722Z,0
2017-10-13T04:20:04.716Z,0
2017-10-13T04:21:04.705Z,0
2017-10-13T04:22:04.693Z,0
2017-10-13T04:23:04.686Z,0
2017-10-13T04:24:04.684Z,0
2017-10-13T04:25:04.667Z,0
2017-10-13T04:26:03.994Z,0
2017-10-13T04:27:04.314Z,0
2017-10-13T04:28:04.308Z,0
2017-10-13T04:29:04.638Z,0
2017-10-13T04:30:04.293Z,0
2017-10-13T04:31:04.625Z,0
2017-10-13T04:32:04.609Z,0
2017-10-13T04:33:04.899Z,0
2017-10-13T04:34:04.584Z,0
2017-10-13T04:35:04.585Z,0
2017-10-13T04:36:04.581Z,0
2017-10-13T04:37:03.893Z,0
2017-10-13T04:38:04.225Z,0
2017-10-13T04:39:04.543Z,0
2017-10-13T04:40:04.208Z,0
2017-10-13T04:41:04.525Z,0
2017-10-13T04:42:04.179Z,0
2017-10-13T04:43:04.172Z,0
2017-10-13T04:44:04.495Z,0
2017-10-13T04:45:04.517Z,0
2017-10-13T04:46:04.148Z,0
2017-10-13T04:47:04.469Z,0
2017-10-13T04:48:04.461Z,4
2017-10-13T04:49:04.454Z,4
2017-10-13T04:50:04.443Z,0
2017-10-13T04:51:04.431Z,0
2017-10-13T04:52:04.086Z,4
2017-10-13T04:53:04.421Z,4
2017-10-13T04:54:04.422Z,4
2017-10-13T04:55:03.736Z,4
2017-10-13T04:56:04.384Z,4
2017-10-13T04:57:04.382Z,8
2017-10-13T04:58:04.369Z,8
2017-10-13T04:59:04.275Z,8
2017-10-13T05:00:04.011Z,8
2017-10-13T05:01:04.360Z,8
2017-10-13T05:02:04.336Z,12
2017-10-13T05:03:04.321Z,12
2017-10-13T05:04:03.654Z,16
2017-10-13T05:05:03.974Z,20
2017-10-13T05:06:03.977Z,20
2017-10-13T05:07:04.288Z,28
2017-10-13T05:08:04.276Z,32
2017-10-13T05:09:03.936Z,40
2017-10-13T05:10:04.260Z,48
2017-10-13T05:11:04.243Z,56
2017-10-13T05:12:04.252Z,64
2017-10-13T05:13:04.226Z,76
2017-10-13T05:14:03.896Z,88
2017-10-13T05:15:04.214Z,104
2017-10-13T05:16:03.864Z,124
2017-10-13T05:17:04.192Z,140
2017-10-13T05:18:04.209Z,160
2017-10-13T05:19:04.181Z,180
2017-10-13T05:20:04.164Z,204
2017-10-13T05:21:03.826Z,232
2017-10-13T05:22:04.147Z,260
2017-10-13T05:23:04.137Z,288
2017-10-13T05:24:03.798Z,316
2017-10-13T05:25:04.116Z,348
2017-10-13T05:26:04.109Z,384
2017-10-13T05:27:04.104Z,416
2017-10-13T05:28:04.089Z,456
2017-10-13T05:29:03.744Z,500
2017-10-13T05:30:04.319Z,544
2017-10-13T05:31:04.066Z,592
2017-10-13T05:32:04.056Z,640
2017-10-13T05:33:04.040Z,688
2017-10-13T05:34:03.714Z,740
2017-10-13T05:35:03.691Z,800
2017-10-13T05:36:04.027Z,864
2017-10-13T05:37:04.002Z,928
2017-10-13T05:38:03.663Z,992
2017-10-13T05:39:04.003Z,1060
2017-10-13T05:40:04.074Z,1128
2017-10-13T05:41:03.303Z,1196
2017-10-13T05:42:03.961Z,1276
2017-10-13T05:43:03.958Z,1360
2017-10-13T05:44:03.933Z,1448
2017-10-13T05:45:03.927Z,1536
2017-10-13T05:46:03.592Z,1628
2017-10-13T05:47:03.909Z,1720
2017-10-13T05:48:03.240Z,1808
2017-10-13T05:49:03.561Z,1880
2017-10-13T05:50:03.551Z,1952
2017-10-13T05:51:03.875Z,2092
2017-10-13T05:52:03.865Z,2172
2017-10-13T05:53:03.865Z,2172
2017-10-13T05:54:03.855Z,2244
2017-10-13T05:55:03.836Z,2388
2017-10-13T05:56:03.828Z,2516
2017-10-13T05:57:03.494Z,2672
2017-10-13T05:58:03.476Z,2840
2017-10-13T05:59:03.468Z,2948
2017-10-13T06:00:03.457Z,3040
2017-10-13T06:01:03.696Z,3128
2017-10-13T06:02:03.441Z,3324
2017-10-13T06:03:03.763Z,3708
2017-10-13T06:04:03.445Z,3832
2017-10-13T06:05:03.744Z,4028
2017-10-13T06:06:03.734Z,4172
2017-10-13T06:07:03.399Z,4152
2017-10-13T06:08:03.736Z,3620
2017-10-13T06:09:03.378Z,3108
2017-10-13T06:10:03.376Z,3132
2017-10-13T06:11:03.697Z,3276
2017-10-13T06:12:03.361Z,3560
2017-10-13T06:13:03.342Z,4008
2017-10-13T06:14:03.676Z,4120
2017-10-13T06:15:03.334Z,3936
2017-10-13T06:16:03.320Z,3776
2017-10-13T06:17:03.658Z,4224
2017-10-13T06:18:03.304Z,5296
2017-10-13T06:19:03.626Z,5904
2017-10-13T06:20:03.299Z,5620
2017-10-13T06:21:03.618Z,5860
2017-10-13T06:22:03.618Z,5940
2017-10-13T06:23:03.599Z,6344
2017-10-13T06:24:03.592Z,6976
2017-10-13T06:25:03.584Z,6676
2017-10-13T06:26:03.245Z,6688
2017-10-13T06:27:03.239Z,6732
2017-10-13T06:28:03.232Z,6320
2017-10-13T06:29:03.234Z,6368
2017-10-13T06:30:03.554Z,6360
2017-10-13T06:31:03.211Z,6680
2017-10-13T06:32:03.832Z,6940
2017-10-13T06:33:02.869Z,7636
2017-10-13T06:34:03.187Z,7996
2017-10-13T06:35:02.857Z,8668
2017-10-13T06:36:03.709Z,9172
2017-10-13T06:37:03.750Z,9864
2017-10-13T06:38:03.490Z,10268
2017-10-13T06:39:03.163Z,10640
2017-10-13T06:40:03.484Z,11196
2017-10-13T06:41:03.482Z,11492
2017-10-13T06:42:03.481Z,12184
2017-10-13T06:43:03.479Z,12216
2017-10-13T06:44:03.456Z,11732
2017-10-13T06:45:03.477Z,11404
2017-10-13T06:46:03.456Z,12452
2017-10-13T06:47:03.116Z,12468
2017-10-13T06:48:03.444Z,12052
2017-10-13T06:49:03.437Z,12608
2017-10-13T06:50:03.103Z,12724
2017-10-13T06:51:03.425Z,12032
2017-10-13T06:52:03.424Z,11504
2017-10-13T06:53:03.419Z,10216
2017-10-13T06:54:03.434Z,11060
2017-10-13T06:55:02.743Z,11584
2017-10-13T06:56:03.410Z,10900
2017-10-13T06:57:03.406Z,11028
2017-10-13T06:58:03.400Z,10816
2017-10-13T06:59:03.390Z,10396
2017-10-13T07:00:03.391Z,10492
2017-10-13T07:01:03.770Z,10228
2017-10-13T07:02:03.389Z,10916
2017-10-13T07:03:03.382Z,11032
2017-10-13T07:04:03.041Z,10608
2017-10-13T07:05:03.395Z,10848
2017-10-13T07:06:03.038Z,10300
2017-10-13T07:07:03.362Z,10708
2017-10-13T07:08:03.357Z,12548
2017-10-13T07:09:03.020Z,12708
2017-10-13T07:10:03.360Z,11992
2017-10-13T07:11:03.344Z,11920
2017-10-13T07:12:02.678Z,12076
2017-10-13T07:13:03.341Z,11776
2017-10-13T07:14:03.006Z,12048
2017-10-13T07:15:03.338Z,11952
2017-10-13T07:16:03.332Z,11456
2017-10-13T07:17:02.991Z,10436
2017-10-13T07:18:03.328Z,10192
2017-10-13T07:19:03.314Z,10528
2017-10-13T07:20:02.984Z,10756
2017-10-13T07:21:03.309Z,12088
2017-10-13T07:22:03.304Z,12060
2017-10-13T07:23:03.302Z,12520
2017-10-13T07:24:03.303Z,13780
2017-10-13T07:25:03.293Z,13704
2017-10-13T07:26:02.958Z,14088
2017-10-13T07:27:03.286Z,14388
2017-10-13T07:28:02.948Z,15392
2017-10-13T07:29:02.949Z,14192
2017-10-13T07:30:02.946Z,15232
2017-10-13T07:31:02.607Z,15488
2017-10-13T07:32:02.604Z,14216
2017-10-13T07:33:02.931Z,11244
2017-10-13T07:34:02.927Z,7516
2017-10-13T07:35:02.595Z,7052
2017-10-13T07:36:03.249Z,6988
2017-10-13T07:37:02.586Z,6904
2017-10-13T07:38:02.586Z,7036
2017-10-13T07:39:02.910Z,7276
2017-10-13T07:40:02.907Z,7408
2017-10-13T07:41:03.234Z,7624
2017-10-13T07:42:03.231Z,7840
2017-10-13T07:43:03.233Z,8132
2017-10-13T07:44:02.561Z,8556
2017-10-13T07:45:03.441Z,8964
2017-10-13T07:46:02.555Z,9800
2017-10-13T07:47:03.214Z,11720
2017-10-13T07:48:03.415Z,14872
2017-10-13T07:49:03.073Z,15872
2017-10-13T07:50:02.862Z,13112
2017-10-13T07:51:02.858Z,11152
2017-10-13T07:52:03.194Z,11236
2017-10-13T07:53:02.863Z,11100
2017-10-13T07:54:03.185Z,11248
2017-10-13T07:55:03.180Z,12280
2017-10-13T07:56:03.164Z,12124
2017-10-13T07:57:02.501Z,12584
2017-10-13T07:58:02.831Z,11172
2017-10-13T07:59:03.159Z,10992
2017-10-13T08:00:03.150Z,11184
2017-10-13T08:01:02.814Z,12560
2017-10-13T08:02:02.813Z,14404
2017-10-13T08:03:02.809Z,14264
2017-10-13T08:04:02.808Z,13384
2017-10-13T08:05:03.128Z,12196
2017-10-13T08:06:02.792Z,11816
2017-10-13T08:07:03.121Z,11748
2017-10-13T08:08:02.788Z,11716
2017-10-13T08:09:03.116Z,11968
2017-10-13T08:10:03.109Z,12032
2017-10-13T08:11:02.441Z,12256
2017-10-13T08:12:02.772Z,12424
2017-10-13T08:13:03.099Z,12484
2017-10-13T08:14:03.092Z,12576
2017-10-13T08:15:02.425Z,12564
2017-10-13T08:16:03.088Z,12216
2017-10-13T08:17:02.751Z,12168
2017-10-13T08:18:03.076Z,12144
2017-10-13T08:19:02.759Z,12000
2017-10-13T08:20:02.412Z,11832
2017-10-13T08:21:03.065Z,12068
2017-10-13T08:22:02.735Z,12024
2017-10-13T08:23:03.056Z,11876
2017-10-13T08:24:03.070Z,11668
2017-10-13T08:25:02.396Z,11528
2017-10-13T08:26:03.049Z,11344
2017-10-13T08:27:03.045Z,11064
2017-10-13T08:28:02.715Z,10832
2017-10-13T08:29:02.710Z,11000
2017-10-13T08:30:03.042Z,10988
2017-10-13T08:31:02.699Z,10944
2017-10-13T08:32:03.023Z,10940
2017-10-13T08:33:02.359Z,10964
2017-10-13T08:34:02.356Z,11084
2017-10-13T08:35:02.361Z,11212
2017-10-13T08:36:02.684Z,11256
2017-10-13T08:37:02.675Z,11368
2017-10-13T08:38:03.015Z,11168
2017-10-13T08:39:03.003Z,11212
2017-10-13T08:40:03.007Z,11260
2017-10-13T08:41:02.667Z,11124
2017-10-13T08:42:02.995Z,10984
2017-10-13T08:43:02.992Z,10876
2017-10-13T08:44:02.998Z,10780
2017-10-13T08:45:02.652Z,10612
2017-10-13T08:46:02.990Z,10380
2017-10-13T08:47:02.651Z,10296
2017-10-13T08:48:02.982Z,10200
2017-10-13T08:49:02.964Z,10236
2017-10-13T08:50:02.962Z,10276
2017-10-13T08:51:01.964Z,10332
2017-10-13T08:52:02.966Z,10208
2017-10-13T08:53:02.292Z,9964
2017-10-13T08:54:02.947Z,9680
2017-10-13T08:55:02.618Z,9692
2017-10-13T08:56:02.619Z,9368
2017-10-13T08:57:02.941Z,9440
2017-10-13T08:58:02.954Z,9320
2017-10-13T08:59:02.928Z,8936
2017-10-13T09:00:02.936Z,8660
2017-10-13T09:01:02.594Z,8268
2017-10-13T09:02:02.929Z,7800
2017-10-13T09:03:02.586Z,7860
2017-10-13T09:04:02.585Z,7652
2017-10-13T09:05:02.577Z,7748
2017-10-13T09:06:02.577Z,7864
2017-10-13T09:07:02.565Z,7920
2017-10-13T09:08:02.561Z,7988
2017-10-13T09:09:02.563Z,8024
2017-10-13T09:10:02.892Z,8116
2017-10-13T09:11:02.885Z,8300
2017-10-13T09:12:02.887Z,9000
2017-10-13T09:13:02.548Z,8908
2017-10-13T09:14:02.541Z,8956
2017-10-13T09:15:02.538Z,9184
2017-10-13T09:16:02.874Z,9028
2017-10-13T09:17:02.874Z,9716
2017-10-13T09:18:02.561Z,10936
2017-10-13T09:19:02.857Z,14048
2017-10-13T09:20:02.516Z,15292
2017-10-13T09:21:02.516Z,12400
2017-10-13T09:22:02.518Z,10668
2017-10-13T09:23:02.507Z,10376
2017-10-13T09:24:02.509Z,9356
2017-10-13T09:25:02.828Z,9052
2017-10-13T09:26:02.830Z,9112
2017-10-13T09:27:02.693Z,9596
2017-10-13T09:28:02.816Z,9908
2017-10-13T09:29:02.814Z,10008
2017-10-13T09:30:02.819Z,9928
2017-10-13T09:31:02.474Z,9164
2017-10-13T09:32:02.816Z,8860
2017-10-13T09:33:02.800Z,9188
2017-10-13T09:34:02.466Z,8284
2017-10-13T09:35:02.478Z,8496
2017-10-13T09:36:02.470Z,7644
2017-10-13T09:37:02.120Z,7184
2017-10-13T09:38:02.785Z,7012
2017-10-13T09:39:02.777Z,7052
2017-10-13T09:40:02.441Z,6988
2017-10-13T09:41:02.641Z,6876
2017-10-13T09:42:02.434Z,6816
2017-10-13T09:43:02.759Z,6680
2017-10-13T09:44:02.773Z,6824
2017-10-13T09:45:02.428Z,6852
2017-10-13T09:46:02.428Z,6756
2017-10-13T09:47:02.755Z,6864
2017-10-13T09:48:02.419Z,6972
2017-10-13T09:49:02.077Z,6948
2017-10-13T09:50:02.069Z,7032
2017-10-13T09:51:02.732Z,6980
2017-10-13T09:52:02.397Z,6848
2017-10-13T09:53:02.722Z,7084
2017-10-13T09:54:02.729Z,7404
2017-10-13T09:55:02.727Z,7088
2017-10-13T09:56:02.713Z,7140
2017-10-13T09:57:02.378Z,7312
2017-10-13T09:58:02.369Z,7052
2017-10-13T09:59:02.371Z,7492
2017-10-13T10:00:02.375Z,8056
2017-10-13T10:01:02.363Z,9092
2017-10-13T10:02:02.024Z,8376
2017-10-13T10:03:02.357Z,8140
2017-10-13T10:04:02.383Z,8372
2017-10-13T10:05:02.679Z,9336
2017-10-13T10:06:02.678Z,9640
2017-10-13T10:07:02.665Z,10112
2017-10-13T10:08:02.685Z,9936
2017-10-13T10:09:02.335Z,9696
2017-10-13T10:10:01.658Z,9884
2017-10-13T10:11:01.995Z,9688
2017-10-13T10:12:02.647Z,9412
2017-10-13T10:13:02.314Z,11276
2017-10-13T10:14:02.308Z,12428
2017-10-13T10:15:02.638Z,11016
2017-10-13T10:16:02.641Z,9876
2017-10-13T10:17:02.305Z,8864
2017-10-13T10:18:02.644Z,8500
2017-10-13T10:19:02.627Z,8360
2017-10-13T10:20:02.440Z,9380
2017-10-13T10:21:02.282Z,11620
2017-10-13T10:22:02.615Z,12148
2017-10-13T10:23:02.281Z,10384
2017-10-13T10:24:02.602Z,11488
2017-10-13T10:25:02.271Z,12920
2017-10-13T10:26:02.273Z,14008
2017-10-13T10:27:02.595Z,12528
2017-10-13T10:28:02.269Z,10584
2017-10-13T10:29:02.265Z,10048
2017-10-13T10:30:02.252Z,9932
2017-10-13T10:31:02.608Z,10116
2017-10-13T10:32:02.587Z,10328
2017-10-13T10:33:02.578Z,11076
2017-10-13T10:34:02.588Z,11820
2017-10-13T10:35:02.237Z,12172
2017-10-13T10:36:02.253Z,12332
2017-10-13T10:37:02.237Z,12064
2017-10-13T10:38:02.224Z,11576
2017-10-13T10:39:02.589Z,11436
2017-10-13T10:40:01.894Z,12168
2017-10-13T10:41:02.809Z,14032
2017-10-13T10:42:02.562Z,13888
2017-10-13T10:43:02.545Z,13920
2017-10-13T10:44:02.552Z,13096
2017-10-13T10:45:02.210Z,13232
2017-10-13T10:46:02.534Z,13716
2017-10-13T10:47:02.203Z,12904
2017-10-13T10:48:02.539Z,13064
2017-10-13T10:49:02.534Z,12848
2017-10-13T10:50:02.198Z,12776
2017-10-13T10:51:02.538Z,11448
2017-10-13T10:52:02.205Z,11000
2017-10-13T10:53:02.530Z,12048
2017-10-13T10:54:02.524Z,12696
2017-10-13T10:55:02.522Z,12732
2017-10-13T10:56:02.181Z,12972
2017-10-13T10:57:02.509Z,12228
2017-10-13T10:58:02.507Z,11392
2017-10-13T10:59:02.505Z,11032
2017-10-13T11:00:02.508Z,11280
2017-10-13T11:01:02.170Z,12296
2017-10-13T11:02:02.513Z,12516
2017-10-13T11:03:02.502Z,12916
2017-10-13T11:04:02.499Z,12612
2017-10-13T11:05:02.175Z,11584
2017-10-13T11:06:02.165Z,10516
2017-10-13T11:07:02.504Z,9688
2017-10-13T11:08:02.170Z,8640
2017-10-13T11:09:02.485Z,8332
2017-10-13T11:10:02.489Z,8396
2017-10-13T11:11:02.498Z,9236
2017-10-13T11:12:02.479Z,10540
2017-10-13T11:13:02.479Z,12248
2017-10-13T11:14:02.485Z,12936
2017-10-13T11:15:02.487Z,11196
2017-10-13T11:16:02.147Z,9760
2017-10-13T11:17:02.481Z,9760
2017-10-13T11:18:02.141Z,10540
2017-10-13T11:19:02.130Z,10860
2017-10-13T11:20:02.134Z,10644
2017-10-13T11:21:01.799Z,10056
2017-10-13T11:22:02.475Z,10224
2017-10-13T11:23:02.458Z,10100
2017-10-13T11:24:02.124Z,10644
2017-10-13T11:25:02.124Z,12304
2017-10-13T11:26:02.125Z,12820
2017-10-13T11:27:02.461Z,11828
2017-10-13T11:28:02.449Z,11340
2017-10-13T11:29:02.448Z,11032
2017-10-13T11:30:02.442Z,11340
2017-10-13T11:31:02.111Z,10692
2017-10-13T11:32:02.440Z,9980
2017-10-13T11:33:02.105Z,9704
2017-10-13T11:34:02.446Z,9348
2017-10-13T11:35:02.434Z,8972
2017-10-13T11:36:02.458Z,8652
2017-10-13T11:37:02.432Z,8800
2017-10-13T11:38:02.397Z,9012
2017-10-13T11:39:02.104Z,8836
2017-10-13T11:40:02.092Z,8476
2017-10-13T11:41:02.423Z,8672
2017-10-13T11:42:02.423Z,9204
2017-10-13T11:43:02.415Z,9652
2017-10-13T11:44:02.445Z,10548
2017-10-13T11:45:02.080Z,11656
2017-10-13T11:46:01.752Z,12248
2017-10-13T11:47:02.410Z,12416
2017-10-13T11:48:02.405Z,11864
2017-10-13T11:49:02.405Z,10232
2017-10-13T11:50:02.074Z,9084
2017-10-13T11:51:02.403Z,9168
2017-10-13T11:52:02.065Z,9684
2017-10-13T11:53:02.420Z,9588
2017-10-13T11:54:02.396Z,9752
2017-10-13T11:55:02.062Z,10236
2017-10-13T11:56:02.394Z,11452
2017-10-13T11:57:02.384Z,11968
2017-10-13T11:58:02.396Z,12132
2017-10-13T11:59:02.389Z,12468
2017-10-13T12:00:02.384Z,12364
2017-10-13T12:01:02.097Z,12176
2017-10-13T12:02:02.386Z,12492
2017-10-13T12:03:02.582Z,12836
2017-10-13T12:04:02.374Z,12676
2017-10-13T12:05:02.057Z,12288
2017-10-13T12:06:02.370Z,11792
2017-10-13T12:07:02.363Z,11380
2017-10-13T12:08:02.365Z,11808
2017-10-13T12:09:02.365Z,12056
2017-10-13T12:10:02.396Z,11808
2017-10-13T12:11:02.356Z,11960
2017-10-13T12:12:01.704Z,12208
2017-10-13T12:13:02.360Z,11436
2017-10-13T12:14:02.557Z,11288
2017-10-13T12:15:02.022Z,11632
2017-10-13T12:16:02.368Z,12412
2017-10-13T12:17:02.012Z,12152
2017-10-13T12:18:01.682Z,11816
2017-10-13T12:19:02.016Z,11308
2017-10-13T12:20:02.011Z,10892
2017-10-13T12:21:02.352Z,10652
2017-10-13T12:22:02.007Z,11028
2017-10-13T12:23:02.341Z,11664
2017-10-13T12:24:02.386Z,11984
2017-10-13T12:25:02.013Z,11692
2017-10-13T12:26:02.002Z,11496
2017-10-13T12:27:02.330Z,11444
2017-10-13T12:28:01.996Z,11924
2017-10-13T12:29:01.990Z,12088
2017-10-13T12:30:02.326Z,10904
2017-10-13T12:31:02.328Z,9972
2017-10-13T12:32:02.333Z,9320
2017-10-13T12:33:01.988Z,9176
2017-10-13T12:34:02.327Z,9272
2017-10-13T12:35:02.328Z,9732
2017-10-13T12:36:01.986Z,9604
2017-10-13T12:37:01.985Z,8856
2017-10-13T12:38:02.312Z,8152
2017-10-13T12:39:02.308Z,7856
2017-10-13T12:40:02.308Z,8052
2017-10-13T12:41:01.641Z,8352
2017-10-13T12:42:02.298Z,8880
2017-10-13T12:43:02.298Z,9584
2017-10-13T12:44:02.299Z,9764
2017-10-13T12:45:02.298Z,9724
2017-10-13T12:46:02.305Z,10148
2017-10-13T12:47:01.631Z,10580
2017-10-13T12:48:02.294Z,9992
2017-10-13T12:49:01.972Z,9696
2017-10-13T12:50:01.950Z,10196
2017-10-13T12:51:02.678Z,10812
2017-10-13T12:52:01.620Z,11444
2017-10-13T12:53:01.946Z,11636
2017-10-13T12:54:01.946Z,11748
2017-10-13T12:55:02.279Z,11040
2017-10-13T12:56:02.270Z,10508
2017-10-13T12:57:01.603Z,9808
2017-10-13T12:58:02.275Z,8920
2017-10-13T12:59:02.266Z,7892
2017-10-13T13:00:02.264Z,7592
2017-10-13T13:01:01.604Z,7528
2017-10-13T13:02:02.258Z,7080
2017-10-13T13:03:02.258Z,6912
2017-10-13T13:04:02.260Z,6536
2017-10-13T13:05:02.254Z,6464
2017-10-13T13:06:01.918Z,6296
2017-10-13T13:07:01.916Z,6648
2017-10-13T13:08:01.580Z,6892
2017-10-13T13:09:02.242Z,7148
2017-10-13T13:10:01.906Z,7200
2017-10-13T13:11:02.233Z,7504
2017-10-13T13:12:02.236Z,7628
2017-10-13T13:13:02.253Z,7788
2017-10-13T13:14:02.239Z,8088
2017-10-13T13:15:01.895Z,8428
2017-10-13T13:16:01.891Z,8576
2017-10-13T13:17:01.887Z,8880
2017-10-13T13:18:02.231Z,9188
2017-10-13T13:19:02.218Z,9324
2017-10-13T13:20:01.893Z,9368
2017-10-13T13:21:01.897Z,9496
2017-10-13T13:22:01.892Z,9664
2017-10-13T13:23:02.206Z,9876
2017-10-13T13:24:02.209Z,9964
2017-10-13T13:25:01.869Z,9868
2017-10-13T13:26:02.208Z,9748
2017-10-13T13:27:01.882Z,9832
2017-10-13T13:28:01.863Z,10024
2017-10-13T13:29:02.193Z,10236
2017-10-13T13:30:02.190Z,10340
2017-10-13T13:31:02.191Z,10508
2017-10-13T13:32:02.191Z,10772
2017-10-13T13:33:02.182Z,10964
2017-10-13T13:34:02.185Z,11112
2017-10-13T13:35:02.195Z,11156
2017-10-13T13:36:01.842Z,10960
2017-10-13T13:37:02.177Z,10920
2017-10-13T13:38:02.176Z,10760
2017-10-13T13:39:02.172Z,10636
2017-10-13T13:40:02.171Z,10472
2017-10-13T13:41:02.165Z,10272